sim
Sign-in with your pilot id or email,
or register
Callsign
Passwort

Schedule Details

Flight Number: OEO5023
Departure: Riga International Airport (EVRA) at 03:25
Arrival: Munich Airport (EDDM) at 05:45

Weather Information
Getting current METAR information for EVRA 291550Z 03006KT 9999 2500 NSC 15/11 Q1018 NOSIG
Getting current METAR information for EDDM 291550Z 26008KT 230V290 9999 BKN014 12/09 Q1019 NOSIG

Schedule Frequency

Route Map